TimeEET,TemperatureF,Dew PointF,Humidity,Sea Level PressureIn,VisibilityMPH,Wind Direction,Wind SpeedMPH,Gust SpeedMPH,PrecipitationIn,Events,Conditions,WindDirDegrees,DateUTC
12:00 AM,55.4,50.0,82,30.01,6.2,ENE,4.6,-,N/A,,Scattered Clouds,60,2012-11-12 22:00:00
1:00 AM,57.2,51.8,82,30.01,6.2,East,4.6,-,N/A,Rain,Rain,90,2012-11-12 23:00:00
2:00 AM,57.2,51.8,82,30.01,6.2,ENE,4.6,-,N/A,,Scattered Clouds,60,2012-11-13 00:00:00
3:00 AM,57.2,51.8,82,29.98,6.2,ENE,4.6,-,N/A,,Scattered Clouds,60,2012-11-13 01:00:00
4:00 AM,55.4,51.8,88,29.98,6.2,ESE,4.6,-,N/A,,Scattered Clouds,120,2012-11-13 02:00:00
5:00 AM,53.6,50.0,88,29.98,-9999.0,ENE,4.6,-,N/A,,Clear,60,2012-11-13 03:00:00
6:00 AM,53.6,50.0,88,29.98,6.2,NE,4.6,-,N/A,,Partly Cloudy,50,2012-11-13 04:00:00
7:00 AM,53.6,51.8,94,30.01,6.2,ENE,4.6,-,N/A,,Scattered Clouds,60,2012-11-13 05:00:00
8:00 AM,60,55,78,29.99,9,ENE,2.2,,,,Partly Cloudy,60,2012-11-13 06:00:00
8:00 AM,60.8,51.8,72,30.01,6.2,ENE,4.6,-,N/A,,Scattered Clouds,70,2012-11-13 06:00:00
9:00 AM,62.6,55.4,77,30.04,6.2,ENE,4.6,-,N/A,,Mostly Cloudy,70,2012-11-13 07:00:00
10:00 AM,68.0,51.8,56,30.01,6.2,NNE,2.3,-,N/A,,Mostly Cloudy,30,2012-11-13 08:00:00
11:00 AM,68.0,53.6,60,30.01,6.2,NNW,4.6,-,N/A,,Mostly Cloudy,330,2012-11-13 09:00:00
12:00 PM,69.8,51.8,53,29.98,6.2,NNW,6.9,-,N/A,,Mostly Cloudy,330,2012-11-13 10:00:00
1:00 PM,71.6,57.2,60,29.98,6.2,NW,4.6,-,N/A,,Scattered Clouds,310,2012-11-13 11:00:00
2:00 PM,73,58,51,29.96,9,SW,2.2,,,,Scattered Clouds,230,2012-11-13 12:00:00
2:00 PM,71.6,39.2,31,29.98,6.2,West,5.8,-,N/A,,Mostly Cloudy,270,2012-11-13 12:00:00
3:00 PM,68.0,59.0,73,29.98,6.2,West,4.6,-,N/A,,Mostly Cloudy,280,2012-11-13 13:00:00
4:00 PM,68.0,59.0,73,29.98,6.2,West,1.2,-,N/A,,Mostly Cloudy,280,2012-11-13 14:00:00
5:00 PM,64.4,59.0,83,29.98,6.2,East,4.6,-,N/A,,Mostly Cloudy,80,2012-11-13 15:00:00
6:00 PM,60.8,55.4,82,30.01,6.2,East,4.6,-,N/A,,Scattered Clouds,90,2012-11-13 16:00:00
7:00 PM,59.0,57.2,94,30.01,6.2,East,2.3,-,N/A,,Partly Cloudy,80,2012-11-13 17:00:00
8:00 PM,62,59,85,29.99,9,ENE,2.2,,,,,70,2012-11-13 18:00:00
8:00 PM,59.0,55.4,88,30.01,-9999.0,East,2.3,-,N/A,,Clear,80,2012-11-13 18:00:00
9:00 PM,59.0,55.4,88,30.01,-9999.0,ENE,2.3,-,N/A,,Clear,70,2012-11-13 19:00:00
10:00 PM,57.2,55.4,94,30.01,-9999.0,ENE,4.6,-,N/A,,Clear,60,2012-11-13 20:00:00
11:00 PM,57.2,55.4,94,30.01,-9999.0,East,3.5,-,N/A,,Clear,90,2012-11-13 21:00:00